sensor_id;sensor_type;location;lat;lon;timestamp;P1;durP1;ratioP1;P2;durP2;ratioP2
4686;SDS011;2357;47.316;-1.348;2023-07-28T00:00:58;4.50;;;1.20;;
4686;SDS011;2357;47.316;-1.348;2023-07-28T00:03:24;1.13;;;1.00;;
4686;SDS011;2357;47.316;-1.348;2023-07-28T00:05:49;1.97;;;1.00;;
4686;SDS011;2357;47.316;-1.348;2023-07-28T00:08:15;1.23;;;0.90;;
4686;SDS011;2357;47.316;-1.348;2023-07-28T00:10:41;2.00;;;0.80;;
4686;SDS011;2357;47.316;-1.348;2023-07-28T00:13:07;2.03;;;1.07;;
4686;SDS011;2357;47.316;-1.348;2023-07-28T00:15:33;0.90;;;0.90;;
4686;SDS011;2357;47.316;-1.348;2023-07-28T00:17:59;1.53;;;0.97;;
4686;SDS011;2357;47.316;-1.348;2023-07-28T00:20:28;1.33;;;0.80;;
4686;SDS011;2357;47.316;-1.348;2023-07-28T00:22:53;3.40;;;1.10;;
4686;SDS011;2357;47.316;-1.348;2023-07-28T00:25:19;1.90;;;0.70;;
4686;SDS011;2357;47.316;-1.348;2023-07-28T00:27:44;3.60;;;1.20;;
4686;SDS011;2357;47.316;-1.348;2023-07-28T00:30:10;2.17;;;1.10;;
4686;SDS011;2357;47.316;-1.348;2023-07-28T00:32:37;0.87;;;0.73;;
4686;SDS011;2357;47.316;-1.348;2023-07-28T00:35:02;0.80;;;0.80;;
4686;SDS011;2357;47.316;-1.348;2023-07-28T00:37:28;0.90;;;0.90;;
4686;SDS011;2357;47.316;-1.348;2023-07-28T00:39:54;2.10;;;1.20;;
4686;SDS011;2357;47.316;-1.348;2023-07-28T00:42:20;0.80;;;0.80;;
4686;SDS011;2357;47.316;-1.348;2023-07-28T00:44:45;1.50;;;0.87;;
4686;SDS011;2357;47.316;-1.348;2023-07-28T00:47:11;1.10;;;0.90;;
4686;SDS011;2357;47.316;-1.348;2023-07-28T00:49:37;0.73;;;0.73;;
4686;SDS011;2357;47.316;-1.348;2023-07-28T00:52:05;1.73;;;0.83;;
4686;SDS011;2357;47.316;-1.348;2023-07-28T00:54:35;1.77;;;0.90;;
4686;SDS011;2357;47.316;-1.348;2023-07-28T00:57:01;0.63;;;0.63;;
4686;SDS011;2357;47.316;-1.348;2023-07-28T00:59:28;0.60;;;0.60;;
4686;SDS011;2357;47.316;-1.348;2023-07-28T01:01:54;0.80;;;0.60;;
4686;SDS011;2357;47.316;-1.348;2023-07-28T01:04:19;0.60;;;0.60;;
4686;SDS011;2357;47.316;-1.348;2023-07-28T01:10:20;0.83;;;0.70;;
4686;SDS011;2357;47.316;-1.348;2023-07-28T01:12:31;1.10;;;0.60;;
4686;SDS011;2357;47.316;-1.348;2023-07-28T01:14:57;3.30;;;0.70;;
4686;SDS011;2357;47.316;-1.348;2023-07-28T01:17:23;1.03;;;0.70;;
4686;SDS011;2357;47.316;-1.348;2023-07-28T01:19:51;0.90;;;0.57;;
4686;SDS011;2357;47.316;-1.348;2023-07-28T01:27:44;1.37;;;0.50;;
4686;SDS011;2357;47.316;-1.348;2023-07-28T01:30:10;0.70;;;0.60;;
4686;SDS011;2357;47.316;-1.348;2023-07-28T01:32:36;0.70;;;0.60;;
4686;SDS011;2357;47.316;-1.348;2023-07-28T01:35:02;0.57;;;0.57;;
4686;SDS011;2357;47.316;-1.348;2023-07-28T01:37:28;4.30;;;0.60;;
4686;SDS011;2357;47.316;-1.348;2023-07-28T01:39:55;0.83;;;0.50;;
4686;SDS011;2357;47.316;-1.348;2023-07-28T01:42:22;0.57;;;0.57;;
4686;SDS011;2357;47.316;-1.348;2023-07-28T01:44:48;0.50;;;0.50;;
4686;SDS011;2357;47.316;-1.348;2023-07-28T01:47:14;0.60;;;0.50;;
4686;SDS011;2357;47.316;-1.348;2023-07-28T01:49:39;1.13;;;0.60;;
4686;SDS011;2357;47.316;-1.348;2023-07-28T01:52:05;0.60;;;0.50;;
4686;SDS011;2357;47.316;-1.348;2023-07-28T01:54:31;0.40;;;0.40;;
4686;SDS011;2357;47.316;-1.348;2023-07-28T01:56:56;0.40;;;0.40;;
4686;SDS011;2357;47.316;-1.348;2023-07-28T01:59:22;0.60;;;0.60;;
4686;SDS011;2357;47.316;-1.348;2023-07-28T02:01:47;0.50;;;0.50;;
4686;SDS011;2357;47.316;-1.348;2023-07-28T02:04:13;3.20;;;0.70;;
4686;SDS011;2357;47.316;-1.348;2023-07-28T02:06:39;2.10;;;0.50;;
4686;SDS011;2357;47.316;-1.348;2023-07-28T02:09:04;0.60;;;0.47;;
4686;SDS011;2357;47.316;-1.348;2023-07-28T02:11:30;0.50;;;0.50;;
4686;SDS011;2357;47.316;-1.348;2023-07-28T02:13:55;10.80;;;1.37;;
4686;SDS011;2357;47.316;-1.348;2023-07-28T02:16:23;0.67;;;0.50;;
4686;SDS011;2357;47.316;-1.348;2023-07-28T02:18:49;1.27;;;0.60;;
4686;SDS011;2357;47.316;-1.348;2023-07-28T02:21:14;2.00;;;0.60;;
4686;SDS011;2357;47.316;-1.348;2023-07-28T02:23:40;0.40;;;0.40;;
4686;SDS011;2357;47.316;-1.348;2023-07-28T02:26:06;1.27;;;0.70;;
4686;SDS011;2357;47.316;-1.348;2023-07-28T02:28:32;0.70;;;0.70;;
4686;SDS011;2357;47.316;-1.348;2023-07-28T02:30:57;1.23;;;0.70;;
4686;SDS011;2357;47.316;-1.348;2023-07-28T02:33:23;0.60;;;0.60;;
4686;SDS011;2357;47.316;-1.348;2023-07-28T02:35:48;1.30;;;0.70;;
4686;SDS011;2357;47.316;-1.348;2023-07-28T02:38:14;0.90;;;0.70;;
4686;SDS011;2357;47.316;-1.348;2023-07-28T02:40:39;5.03;;;0.90;;
4686;SDS011;2357;47.316;-1.348;2023-07-28T02:43:05;0.70;;;0.67;;
4686;SDS011;2357;47.316;-1.348;2023-07-28T02:45:31;1.27;;;0.90;;
4686;SDS011;2357;47.316;-1.348;2023-07-28T02:47:56;2.63;;;1.07;;
4686;SDS011;2357;47.316;-1.348;2023-07-28T02:50:22;0.73;;;0.60;;
4686;SDS011;2357;47.316;-1.348;2023-07-28T02:52:48;0.83;;;0.83;;
4686;SDS011;2357;47.316;-1.348;2023-07-28T02:55:14;0.87;;;0.60;;
4686;SDS011;2357;47.316;-1.348;2023-07-28T02:57:39;0.73;;;0.73;;
4686;SDS011;2357;47.316;-1.348;2023-07-28T03:00:05;0.73;;;0.60;;
4686;SDS011;2357;47.316;-1.348;2023-07-28T03:02:35;2.40;;;0.70;;
4686;SDS011;2357;47.316;-1.348;2023-07-28T03:05:01;1.33;;;0.80;;
4686;SDS011;2357;47.316;-1.348;2023-07-28T03:07:26;1.67;;;0.80;;
4686;SDS011;2357;47.316;-1.348;2023-07-28T03:09:52;2.40;;;0.90;;
4686;SDS011;2357;47.316;-1.348;2023-07-28T03:12:17;1.17;;;0.80;;
4686;SDS011;2357;47.316;-1.348;2023-07-28T03:14:43;0.70;;;0.60;;
4686;SDS011;2357;47.316;-1.348;2023-07-28T03:17:09;0.60;;;0.60;;
4686;SDS011;2357;47.316;-1.348;2023-07-28T03:19:34;3.27;;;0.60;;
4686;SDS011;2357;47.316;-1.348;2023-07-28T03:22:00;3.77;;;0.70;;
4686;SDS011;2357;47.316;-1.348;2023-07-28T03:24:25;1.80;;;0.90;;
4686;SDS011;2357;47.316;-1.348;2023-07-28T03:26:51;0.67;;;0.67;;
4686;SDS011;2357;47.316;-1.348;2023-07-28T03:29:17;2.80;;;0.70;;
4686;SDS011;2357;47.316;-1.348;2023-07-28T03:31:43;2.93;;;0.70;;
4686;SDS011;2357;47.316;-1.348;2023-07-28T03:34:09;1.63;;;0.80;;
4686;SDS011;2357;47.316;-1.348;2023-07-28T03:36:34;2.00;;;0.60;;
4686;SDS011;2357;47.316;-1.348;2023-07-28T03:39:00;2.13;;;0.80;;
4686;SDS011;2357;47.316;-1.348;2023-07-28T03:41:25;0.70;;;0.70;;
4686;SDS011;2357;47.316;-1.348;2023-07-28T03:43:51;2.50;;;0.80;;
4686;SDS011;2357;47.316;-1.348;2023-07-28T03:46:17;1.50;;;0.60;;
4686;SDS011;2357;47.316;-1.348;2023-07-28T03:48:42;1.53;;;0.93;;
4686;SDS011;2357;47.316;-1.348;2023-07-28T03:51:08;0.83;;;0.70;;
4686;SDS011;2357;47.316;-1.348;2023-07-28T03:53:33;2.10;;;0.60;;
4686;SDS011;2357;47.316;-1.348;2023-07-28T03:56:00;4.50;;;0.67;;
4686;SDS011;2357;47.316;-1.348;2023-07-28T03:58:26;2.00;;;1.00;;
4686;SDS011;2357;47.316;-1.348;2023-07-28T04:00:52;0.60;;;0.60;;
4686;SDS011;2357;47.316;-1.348;2023-07-28T04:03:18;1.10;;;1.00;;
4686;SDS011;2357;47.316;-1.348;2023-07-28T04:05:44;0.60;;;0.60;;
4686;SDS011;2357;47.316;-1.348;2023-07-28T04:08:10;0.70;;;0.70;;
4686;SDS011;2357;47.316;-1.348;2023-07-28T04:10:36;3.43;;;0.80;;
4686;SDS011;2357;47.316;-1.348;2023-07-28T04:13:01;0.50;;;0.50;;
4686;SDS011;2357;47.316;-1.348;2023-07-28T04:15:27;3.43;;;0.70;;
4686;SDS011;2357;47.316;-1.348;2023-07-28T04:17:52;0.50;;;0.50;;
4686;SDS011;2357;47.316;-1.348;2023-07-28T04:20:18;7.50;;;0.60;;
4686;SDS011;2357;47.316;-1.348;2023-07-28T04:22:43;0.60;;;0.60;;
4686;SDS011;2357;47.316;-1.348;2023-07-28T04:25:09;3.80;;;0.60;;
4686;SDS011;2357;47.316;-1.348;2023-07-28T04:27:35;0.60;;;0.60;;
4686;SDS011;2357;47.316;-1.348;2023-07-28T04:30:00;4.93;;;0.77;;
4686;SDS011;2357;47.316;-1.348;2023-07-28T04:32:26;1.13;;;0.60;;
4686;SDS011;2357;47.316;-1.348;2023-07-28T04:34:52;3.37;;;0.60;;
4686;SDS011;2357;47.316;-1.348;2023-07-28T04:37:18;3.20;;;0.60;;
4686;SDS011;2357;47.316;-1.348;2023-07-28T04:39:44;0.80;;;0.80;;
4686;SDS011;2357;47.316;-1.348;2023-07-28T04:42:09;1.33;;;0.80;;
4686;SDS011;2357;47.316;-1.348;2023-07-28T04:44:37;3.90;;;0.60;;
4686;SDS011;2357;47.316;-1.348;2023-07-28T04:47:03;0.87;;;0.60;;
4686;SDS011;2357;47.316;-1.348;2023-07-28T04:49:29;7.30;;;1.57;;
4686;SDS011;2357;47.316;-1.348;2023-07-28T04:51:54;1.47;;;0.63;;
4686;SDS011;2357;47.316;-1.348;2023-07-28T04:54:20;1.23;;;0.60;;
4686;SDS011;2357;47.316;-1.348;2023-07-28T04:56:45;4.70;;;0.70;;
4686;SDS011;2357;47.316;-1.348;2023-07-28T04:59:11;9.63;;;0.73;;
4686;SDS011;2357;47.316;-1.348;2023-07-28T05:01:37;2.80;;;0.80;;
4686;SDS011;2357;47.316;-1.348;2023-07-28T05:04:03;2.40;;;0.70;;
4686;SDS011;2357;47.316;-1.348;2023-07-28T05:06:28;1.73;;;0.70;;
4686;SDS011;2357;47.316;-1.348;2023-07-28T05:08:54;1.27;;;0.80;;
4686;SDS011;2357;47.316;-1.348;2023-07-28T05:11:19;0.90;;;0.63;;
4686;SDS011;2357;47.316;-1.348;2023-07-28T05:13:45;2.67;;;0.93;;
4686;SDS011;2357;47.316;-1.348;2023-07-28T05:16:11;1.03;;;0.70;;
4686;SDS011;2357;47.316;-1.348;2023-07-28T05:18:36;0.63;;;0.63;;
4686;SDS011;2357;47.316;-1.348;2023-07-28T05:21:02;0.50;;;0.50;;
4686;SDS011;2357;47.316;-1.348;2023-07-28T05:23:27;0.50;;;0.50;;
4686;SDS011;2357;47.316;-1.348;2023-07-28T05:25:53;2.27;;;0.87;;
4686;SDS011;2357;47.316;-1.348;2023-07-28T05:28:19;1.03;;;0.83;;
4686;SDS011;2357;47.316;-1.348;2023-07-28T05:30:44;1.43;;;0.80;;
4686;SDS011;2357;47.316;-1.348;2023-07-28T05:33:10;1.50;;;0.60;;
4686;SDS011;2357;47.316;-1.348;2023-07-28T05:35:35;0.70;;;0.70;;
4686;SDS011;2357;47.316;-1.348;2023-07-28T05:38:01;0.70;;;0.70;;
4686;SDS011;2357;47.316;-1.348;2023-07-28T05:40:27;1.43;;;0.70;;
4686;SDS011;2357;47.316;-1.348;2023-07-28T05:42:52;1.73;;;0.80;;
4686;SDS011;2357;47.316;-1.348;2023-07-28T05:45:18;1.43;;;0.90;;
4686;SDS011;2357;47.316;-1.348;2023-07-28T05:47:44;0.90;;;0.67;;
4686;SDS011;2357;47.316;-1.348;2023-07-28T05:50:10;2.70;;;0.80;;
4686;SDS011;2357;47.316;-1.348;2023-07-28T05:52:36;0.63;;;0.63;;
4686;SDS011;2357;47.316;-1.348;2023-07-28T05:55:02;0.60;;;0.60;;
4686;SDS011;2357;47.316;-1.348;2023-07-28T05:57:28;5.80;;;1.00;;
4686;SDS011;2357;47.316;-1.348;2023-07-28T05:59:54;2.20;;;0.80;;
4686;SDS011;2357;47.316;-1.348;2023-07-28T06:02:19;0.70;;;0.70;;
4686;SDS011;2357;47.316;-1.348;2023-07-28T06:04:45;1.10;;;1.00;;
4686;SDS011;2357;47.316;-1.348;2023-07-28T06:07:11;0.80;;;0.80;;
4686;SDS011;2357;47.316;-1.348;2023-07-28T06:09:37;3.23;;;0.93;;
4686;SDS011;2357;47.316;-1.348;2023-07-28T06:12:02;0.87;;;0.87;;
4686;SDS011;2357;47.316;-1.348;2023-07-28T06:14:29;15.50;;;1.20;;
4686;SDS011;2357;47.316;-1.348;2023-07-28T06:16:54;1.10;;;1.03;;
4686;SDS011;2357;47.316;-1.348;2023-07-28T06:19:20;2.10;;;1.67;;
4686;SDS011;2357;47.316;-1.348;2023-07-28T06:21:49;5.60;;;1.47;;
4686;SDS011;2357;47.316;-1.348;2023-07-28T06:24:16;4.53;;;1.60;;
4686;SDS011;2357;47.316;-1.348;2023-07-28T06:26:41;3.37;;;2.37;;
4686;SDS011;2357;47.316;-1.348;2023-07-28T06:29:07;2.33;;;1.43;;
4686;SDS011;2357;47.316;-1.348;2023-07-28T06:31:33;8.43;;;1.93;;
4686;SDS011;2357;47.316;-1.348;2023-07-28T06:33:58;11.23;;;2.10;;
4686;SDS011;2357;47.316;-1.348;2023-07-28T06:36:24;3.43;;;1.50;;
4686;SDS011;2357;47.316;-1.348;2023-07-28T06:38:49;6.57;;;1.90;;
4686;SDS011;2357;47.316;-1.348;2023-07-28T06:41:17;8.13;;;2.60;;
4686;SDS011;2357;47.316;-1.348;2023-07-28T06:43:43;6.13;;;2.00;;
4686;SDS011;2357;47.316;-1.348;2023-07-28T06:46:08;11.30;;;2.20;;
4686;SDS011;2357;47.316;-1.348;2023-07-28T06:48:34;6.37;;;2.43;;
4686;SDS011;2357;47.316;-1.348;2023-07-28T06:51:00;9.90;;;2.30;;
4686;SDS011;2357;47.316;-1.348;2023-07-28T06:53:25;3.63;;;2.00;;
4686;SDS011;2357;47.316;-1.348;2023-07-28T06:55:51;7.87;;;1.93;;
4686;SDS011;2357;47.316;-1.348;2023-07-28T06:58:17;7.20;;;1.63;;
4686;SDS011;2357;47.316;-1.348;2023-07-28T07:00:43;7.73;;;1.90;;
4686;SDS011;2357;47.316;-1.348;2023-07-28T07:03:09;9.37;;;2.00;;
4686;SDS011;2357;47.316;-1.348;2023-07-28T07:05:35;13.73;;;1.80;;
4686;SDS011;2357;47.316;-1.348;2023-07-28T07:08:01;9.50;;;2.30;;
4686;SDS011;2357;47.316;-1.348;2023-07-28T07:10:27;6.20;;;1.60;;
4686;SDS011;2357;47.316;-1.348;2023-07-28T07:12:53;2.03;;;1.30;;
4686;SDS011;2357;47.316;-1.348;2023-07-28T07:15:18;7.33;;;2.50;;
4686;SDS011;2357;47.316;-1.348;2023-07-28T07:17:44;10.80;;;2.60;;
4686;SDS011;2357;47.316;-1.348;2023-07-28T07:20:10;9.37;;;2.20;;
4686;SDS011;2357;47.316;-1.348;2023-07-28T07:22:36;7.50;;;2.00;;
4686;SDS011;2357;47.316;-1.348;2023-07-28T07:25:02;10.30;;;1.57;;
4686;SDS011;2357;47.316;-1.348;2023-07-28T07:27:29;2.20;;;1.50;;
4686;SDS011;2357;47.316;-1.348;2023-07-28T07:29:54;7.90;;;1.83;;
4686;SDS011;2357;47.316;-1.348;2023-07-28T07:32:23;7.20;;;2.30;;
4686;SDS011;2357;47.316;-1.348;2023-07-28T07:34:49;7.00;;;1.83;;
4686;SDS011;2357;47.316;-1.348;2023-07-28T07:37:14;2.20;;;1.13;;
4686;SDS011;2357;47.316;-1.348;2023-07-28T07:39:40;2.70;;;1.20;;
4686;SDS011;2357;47.316;-1.348;2023-07-28T07:42:06;1.70;;;0.80;;
4686;SDS011;2357;47.316;-1.348;2023-07-28T07:44:34;1.43;;;1.00;;
4686;SDS011;2357;47.316;-1.348;2023-07-28T07:47:00;6.90;;;1.07;;
4686;SDS011;2357;47.316;-1.348;2023-07-28T07:49:36;0.70;;;0.70;;
4686;SDS011;2357;47.316;-1.348;2023-07-28T07:52:01;1.40;;;0.90;;
4686;SDS011;2357;47.316;-1.348;2023-07-28T07:54:27;4.73;;;1.10;;
4686;SDS011;2357;47.316;-1.348;2023-07-28T07:56:52;4.20;;;1.17;;
4686;SDS011;2357;47.316;-1.348;2023-07-28T07:59:18;3.80;;;1.00;;
4686;SDS011;2357;47.316;-1.348;2023-07-28T08:01:44;1.23;;;1.00;;
4686;SDS011;2357;47.316;-1.348;2023-07-28T08:04:09;1.13;;;0.90;;
4686;SDS011;2357;47.316;-1.348;2023-07-28T08:06:35;3.27;;;0.90;;
4686;SDS011;2357;47.316;-1.348;2023-07-28T08:09:01;7.67;;;0.90;;
4686;SDS011;2357;47.316;-1.348;2023-07-28T08:11:27;2.20;;;0.80;;
4686;SDS011;2357;47.316;-1.348;2023-07-28T08:13:53;2.80;;;0.80;;
4686;SDS011;2357;47.316;-1.348;2023-07-28T08:16:20;4.57;;;1.67;;
4686;SDS011;2357;47.316;-1.348;2023-07-28T08:18:45;2.70;;;1.10;;
4686;SDS011;2357;47.316;-1.348;2023-07-28T08:21:11;1.47;;;1.10;;
4686;SDS011;2357;47.316;-1.348;2023-07-28T08:23:37;3.07;;;0.97;;
4686;SDS011;2357;47.316;-1.348;2023-07-28T08:26:03;1.47;;;0.70;;
4686;SDS011;2357;47.316;-1.348;2023-07-28T08:28:28;2.47;;;0.87;;
4686;SDS011;2357;47.316;-1.348;2023-07-28T08:30:57;2.73;;;0.90;;
4686;SDS011;2357;47.316;-1.348;2023-07-28T08:33:24;5.13;;;0.87;;
4686;SDS011;2357;47.316;-1.348;2023-07-28T08:35:50;3.10;;;0.70;;
4686;SDS011;2357;47.316;-1.348;2023-07-28T08:38:16;3.83;;;1.13;;
4686;SDS011;2357;47.316;-1.348;2023-07-28T08:40:43;0.90;;;0.80;;
4686;SDS011;2357;47.316;-1.348;2023-07-28T08:43:09;2.57;;;0.80;;
4686;SDS011;2357;47.316;-1.348;2023-07-28T08:45:35;1.87;;;0.60;;
4686;SDS011;2357;47.316;-1.348;2023-07-28T08:48:01;1.43;;;0.70;;
4686;SDS011;2357;47.316;-1.348;2023-07-28T08:50:27;4.13;;;0.77;;
4686;SDS011;2357;47.316;-1.348;2023-07-28T08:52:52;2.20;;;0.80;;
4686;SDS011;2357;47.316;-1.348;2023-07-28T08:55:19;2.40;;;0.60;;
4686;SDS011;2357;47.316;-1.348;2023-07-28T08:57:45;1.53;;;0.60;;
4686;SDS011;2357;47.316;-1.348;2023-07-28T09:00:10;0.50;;;0.50;;
4686;SDS011;2357;47.316;-1.348;2023-07-28T09:02:39;1.67;;;0.60;;
4686;SDS011;2357;47.316;-1.348;2023-07-28T09:05:05;2.23;;;0.70;;
4686;SDS011;2357;47.316;-1.348;2023-07-28T09:07:34;1.67;;;0.50;;
4686;SDS011;2357;47.316;-1.348;2023-07-28T09:10:04;0.80;;;0.60;;
4686;SDS011;2357;47.316;-1.348;2023-07-28T09:12:33;2.67;;;1.13;;
4686;SDS011;2357;47.316;-1.348;2023-07-28T09:14:58;9.10;;;1.27;;
4686;SDS011;2357;47.316;-1.348;2023-07-28T09:17:24;2.20;;;0.50;;
4686;SDS011;2357;47.316;-1.348;2023-07-28T09:22:19;1.67;;;0.50;;
4686;SDS011;2357;47.316;-1.348;2023-07-28T09:24:46;2.30;;;0.50;;
4686;SDS011;2357;47.316;-1.348;2023-07-28T09:27:23;0.60;;;0.60;;
4686;SDS011;2357;47.316;-1.348;2023-07-28T09:29:51;0.47;;;0.47;;
4686;SDS011;2357;47.316;-1.348;2023-07-28T09:32:25;1.33;;;0.50;;
4686;SDS011;2357;47.316;-1.348;2023-07-28T09:35:11;1.60;;;0.53;;
4686;SDS011;2357;47.316;-1.348;2023-07-28T09:37:39;0.50;;;0.50;;
4686;SDS011;2357;47.316;-1.348;2023-07-28T09:40:09;2.87;;;0.57;;
4686;SDS011;2357;47.316;-1.348;2023-07-28T09:42:39;0.40;;;0.40;;
4686;SDS011;2357;47.316;-1.348;2023-07-28T09:45:06;0.63;;;0.60;;
4686;SDS011;2357;47.316;-1.348;2023-07-28T09:47:34;0.50;;;0.50;;
4686;SDS011;2357;47.316;-1.348;2023-07-28T09:50:01;0.50;;;0.50;;
4686;SDS011;2357;47.316;-1.348;2023-07-28T09:52:31;0.63;;;0.63;;
4686;SDS011;2357;47.316;-1.348;2023-07-28T09:55:05;1.73;;;0.77;;
4686;SDS011;2357;47.316;-1.348;2023-07-28T09:57:36;1.13;;;0.73;;
4686;SDS011;2357;47.316;-1.348;2023-07-28T10:00:10;0.60;;;0.60;;
4686;SDS011;2357;47.316;-1.348;2023-07-28T10:02:37;1.47;;;0.63;;
4686;SDS011;2357;47.316;-1.348;2023-07-28T10:05:07;4.27;;;0.50;;
4686;SDS011;2357;47.316;-1.348;2023-07-28T10:07:35;1.50;;;0.57;;
4686;SDS011;2357;47.316;-1.348;2023-07-28T10:10:05;0.70;;;0.50;;
4686;SDS011;2357;47.316;-1.348;2023-07-28T10:12:41;1.07;;;0.50;;
4686;SDS011;2357;47.316;-1.348;2023-07-28T10:15:16;0.50;;;0.50;;
4686;SDS011;2357;47.316;-1.348;2023-07-28T10:17:44;0.47;;;0.47;;
4686;SDS011;2357;47.316;-1.348;2023-07-28T10:23:14;0.60;;;0.50;;
4686;SDS011;2357;47.316;-1.348;2023-07-28T10:25:45;1.33;;;0.50;;
4686;SDS011;2357;47.316;-1.348;2023-07-28T10:28:33;0.63;;;0.63;;
4686;SDS011;2357;47.316;-1.348;2023-07-28T10:31:12;0.50;;;0.40;;
4686;SDS011;2357;47.316;-1.348;2023-07-28T10:33:38;0.40;;;0.40;;
4686;SDS011;2357;47.316;-1.348;2023-07-28T10:39:13;1.37;;;0.80;;
4686;SDS011;2357;47.316;-1.348;2023-07-28T10:44:30;1.83;;;0.37;;
4686;SDS011;2357;47.316;-1.348;2023-07-28T10:46:56;0.40;;;0.40;;
4686;SDS011;2357;47.316;-1.348;2023-07-28T10:49:24;0.47;;;0.47;;
4686;SDS011;2357;47.316;-1.348;2023-07-28T10:51:50;1.80;;;0.50;;
4686;SDS011;2357;47.316;-1.348;2023-07-28T10:54:16;0.40;;;0.40;;
4686;SDS011;2357;47.316;-1.348;2023-07-28T10:56:45;0.40;;;0.40;;
4686;SDS011;2357;47.316;-1.348;2023-07-28T10:59:12;0.40;;;0.40;;
4686;SDS011;2357;47.316;-1.348;2023-07-28T11:01:38;0.40;;;0.40;;
4686;SDS011;2357;47.316;-1.348;2023-07-28T11:04:09;0.50;;;0.50;;
4686;SDS011;2357;47.316;-1.348;2023-07-28T11:06:37;0.50;;;0.50;;
4686;SDS011;2357;47.316;-1.348;2023-07-28T11:09:05;0.70;;;0.50;;
4686;SDS011;2357;47.316;-1.348;2023-07-28T11:11:31;1.80;;;0.47;;
4686;SDS011;2357;47.316;-1.348;2023-07-28T11:13:57;0.50;;;0.50;;
4686;SDS011;2357;47.316;-1.348;2023-07-28T11:16:23;0.47;;;0.47;;
4686;SDS011;2357;47.316;-1.348;2023-07-28T11:18:50;0.40;;;0.40;;
4686;SDS011;2357;47.316;-1.348;2023-07-28T11:21:21;0.90;;;0.50;;
4686;SDS011;2357;47.316;-1.348;2023-07-28T11:23:47;0.63;;;0.63;;
4686;SDS011;2357;47.316;-1.348;2023-07-28T11:26:13;0.53;;;0.53;;
4686;SDS011;2357;47.316;-1.348;2023-07-28T11:28:38;0.57;;;0.57;;
4686;SDS011;2357;47.316;-1.348;2023-07-28T11:31:04;0.67;;;0.50;;
4686;SDS011;2357;47.316;-1.348;2023-07-28T11:33:31;0.70;;;0.60;;
4686;SDS011;2357;47.316;-1.348;2023-07-28T11:35:56;0.43;;;0.43;;
4686;SDS011;2357;47.316;-1.348;2023-07-28T11:38:22;0.50;;;0.50;;
4686;SDS011;2357;47.316;-1.348;2023-07-28T11:40:48;0.40;;;0.40;;
4686;SDS011;2357;47.316;-1.348;2023-07-28T11:43:15;0.30;;;0.30;;
4686;SDS011;2357;47.316;-1.348;2023-07-28T11:45:42;2.70;;;0.40;;
4686;SDS011;2357;47.316;-1.348;2023-07-28T11:48:08;0.50;;;0.50;;
4686;SDS011;2357;47.316;-1.348;2023-07-28T11:50:35;1.23;;;0.50;;
4686;SDS011;2357;47.316;-1.348;2023-07-28T11:53:05;0.50;;;0.50;;
4686;SDS011;2357;47.316;-1.348;2023-07-28T11:55:32;0.53;;;0.53;;
4686;SDS011;2357;47.316;-1.348;2023-07-28T11:57:58;0.50;;;0.50;;
4686;SDS011;2357;47.316;-1.348;2023-07-28T12:00:36;2.83;;;0.50;;
4686;SDS011;2357;47.316;-1.348;2023-07-28T12:03:05;0.73;;;0.73;;
4686;SDS011;2357;47.316;-1.348;2023-07-28T12:05:34;0.60;;;0.60;;
4686;SDS011;2357;47.316;-1.348;2023-07-28T12:08:01;0.83;;;0.60;;
4686;SDS011;2357;47.316;-1.348;2023-07-28T12:10:28;0.50;;;0.50;;
4686;SDS011;2357;47.316;-1.348;2023-07-28T12:12:56;0.40;;;0.40;;
4686;SDS011;2357;47.316;-1.348;2023-07-28T12:18:11;4.20;;;0.63;;
4686;SDS011;2357;47.316;-1.348;2023-07-28T12:20:48;0.70;;;0.40;;
4686;SDS011;2357;47.316;-1.348;2023-07-28T12:23:18;0.40;;;0.40;;
4686;SDS011;2357;47.316;-1.348;2023-07-28T12:25:45;0.60;;;0.57;;
4686;SDS011;2357;47.316;-1.348;2023-07-28T12:28:11;0.50;;;0.50;;
4686;SDS011;2357;47.316;-1.348;2023-07-28T12:30:38;0.80;;;0.50;;
4686;SDS011;2357;47.316;-1.348;2023-07-28T12:33:04;1.43;;;0.40;;
4686;SDS011;2357;47.316;-1.348;2023-07-28T12:35:30;1.07;;;0.40;;
4686;SDS011;2357;47.316;-1.348;2023-07-28T12:37:59;0.40;;;0.40;;
4686;SDS011;2357;47.316;-1.348;2023-07-28T12:40:27;0.50;;;0.50;;
4686;SDS011;2357;47.316;-1.348;2023-07-28T12:42:56;0.47;;;0.47;;
4686;SDS011;2357;47.316;-1.348;2023-07-28T12:45:22;0.70;;;0.57;;
4686;SDS011;2357;47.316;-1.348;2023-07-28T12:47:50;0.50;;;0.50;;
4686;SDS011;2357;47.316;-1.348;2023-07-28T12:50:23;0.70;;;0.70;;
4686;SDS011;2357;47.316;-1.348;2023-07-28T12:52:49;0.50;;;0.50;;
4686;SDS011;2357;47.316;-1.348;2023-07-28T12:55:16;2.10;;;0.50;;
4686;SDS011;2357;47.316;-1.348;2023-07-28T12:57:43;0.43;;;0.43;;
4686;SDS011;2357;47.316;-1.348;2023-07-28T13:00:09;0.50;;;0.50;;
4686;SDS011;2357;47.316;-1.348;2023-07-28T13:02:39;0.50;;;0.50;;
4686;SDS011;2357;47.316;-1.348;2023-07-28T13:05:06;4.73;;;0.60;;
4686;SDS011;2357;47.316;-1.348;2023-07-28T13:07:35;0.47;;;0.40;;
4686;SDS011;2357;47.316;-1.348;2023-07-28T13:10:05;0.40;;;0.40;;
4686;SDS011;2357;47.316;-1.348;2023-07-28T13:12:32;0.50;;;0.40;;
4686;SDS011;2357;47.316;-1.348;2023-07-28T13:14:57;0.50;;;0.50;;
4686;SDS011;2357;47.316;-1.348;2023-07-28T13:17:23;0.50;;;0.50;;
4686;SDS011;2357;47.316;-1.348;2023-07-28T13:19:49;0.40;;;0.40;;
4686;SDS011;2357;47.316;-1.348;2023-07-28T13:22:14;0.50;;;0.50;;
4686;SDS011;2357;47.316;-1.348;2023-07-28T13:24:40;0.50;;;0.50;;
4686;SDS011;2357;47.316;-1.348;2023-07-28T13:27:06;0.50;;;0.50;;
4686;SDS011;2357;47.316;-1.348;2023-07-28T13:29:32;0.40;;;0.40;;
4686;SDS011;2357;47.316;-1.348;2023-07-28T13:31:58;1.23;;;0.50;;
4686;SDS011;2357;47.316;-1.348;2023-07-28T13:34:27;0.40;;;0.40;;
4686;SDS011;2357;47.316;-1.348;2023-07-28T13:36:53;0.47;;;0.47;;
4686;SDS011;2357;47.316;-1.348;2023-07-28T13:39:20;1.80;;;0.50;;
4686;SDS011;2357;47.316;-1.348;2023-07-28T13:41:46;0.50;;;0.50;;
4686;SDS011;2357;47.316;-1.348;2023-07-28T13:44:12;0.50;;;0.50;;
4686;SDS011;2357;47.316;-1.348;2023-07-28T13:46:37;0.50;;;0.50;;
4686;SDS011;2357;47.316;-1.348;2023-07-28T13:49:03;0.40;;;0.40;;
4686;SDS011;2357;47.316;-1.348;2023-07-28T13:51:28;0.50;;;0.50;;
4686;SDS011;2357;47.316;-1.348;2023-07-28T13:53:54;0.50;;;0.50;;
4686;SDS011;2357;47.316;-1.348;2023-07-28T13:56:20;0.90;;;0.50;;
4686;SDS011;2357;47.316;-1.348;2023-07-28T13:58:45;0.47;;;0.47;;
4686;SDS011;2357;47.316;-1.348;2023-07-28T14:01:11;0.50;;;0.50;;
4686;SDS011;2357;47.316;-1.348;2023-07-28T14:03:37;6.43;;;0.60;;
4686;SDS011;2357;47.316;-1.348;2023-07-28T14:06:02;0.40;;;0.40;;
4686;SDS011;2357;47.316;-1.348;2023-07-28T14:08:28;0.60;;;0.60;;
4686;SDS011;2357;47.316;-1.348;2023-07-28T14:10:53;0.50;;;0.50;;
4686;SDS011;2357;47.316;-1.348;2023-07-28T14:13:20;5.30;;;0.50;;
4686;SDS011;2357;47.316;-1.348;2023-07-28T14:15:45;0.50;;;0.50;;
4686;SDS011;2357;47.316;-1.348;2023-07-28T14:18:11;0.60;;;0.50;;
4686;SDS011;2357;47.316;-1.348;2023-07-28T14:20:37;0.50;;;0.50;;
4686;SDS011;2357;47.316;-1.348;2023-07-28T14:23:20;0.47;;;0.40;;
4686;SDS011;2357;47.316;-1.348;2023-07-28T14:25:50;2.97;;;0.40;;
4686;SDS011;2357;47.316;-1.348;2023-07-28T14:28:16;0.50;;;0.50;;
4686;SDS011;2357;47.316;-1.348;2023-07-28T14:30:43;0.50;;;0.50;;
4686;SDS011;2357;47.316;-1.348;2023-07-28T14:33:12;0.40;;;0.40;;
4686;SDS011;2357;47.316;-1.348;2023-07-28T14:35:41;1.47;;;0.40;;
4686;SDS011;2357;47.316;-1.348;2023-07-28T14:38:08;2.30;;;0.50;;
4686;SDS011;2357;47.316;-1.348;2023-07-28T14:40:34;0.60;;;0.60;;
4686;SDS011;2357;47.316;-1.348;2023-07-28T14:43:01;1.13;;;0.50;;
4686;SDS011;2357;47.316;-1.348;2023-07-28T14:45:27;0.87;;;0.50;;
4686;SDS011;2357;47.316;-1.348;2023-07-28T14:47:52;0.40;;;0.40;;
4686;SDS011;2357;47.316;-1.348;2023-07-28T14:50:18;2.10;;;0.40;;
4686;SDS011;2357;47.316;-1.348;2023-07-28T14:52:44;0.60;;;0.50;;
4686;SDS011;2357;47.316;-1.348;2023-07-28T14:55:09;3.23;;;0.50;;
4686;SDS011;2357;47.316;-1.348;2023-07-28T14:57:35;0.40;;;0.40;;
4686;SDS011;2357;47.316;-1.348;2023-07-28T15:00:01;0.40;;;0.40;;
4686;SDS011;2357;47.316;-1.348;2023-07-28T15:02:27;0.40;;;0.40;;
4686;SDS011;2357;47.316;-1.348;2023-07-28T15:04:53;0.40;;;0.40;;
4686;SDS011;2357;47.316;-1.348;2023-07-28T15:07:19;0.40;;;0.40;;
4686;SDS011;2357;47.316;-1.348;2023-07-28T15:09:44;0.50;;;0.50;;
4686;SDS011;2357;47.316;-1.348;2023-07-28T15:12:10;0.40;;;0.40;;
4686;SDS011;2357;47.316;-1.348;2023-07-28T15:14:36;0.70;;;0.50;;
4686;SDS011;2357;47.316;-1.348;2023-07-28T15:17:01;0.40;;;0.40;;
4686;SDS011;2357;47.316;-1.348;2023-07-28T15:19:27;0.70;;;0.50;;